createdAt,value
2017-09-29T00:01:26.019Z,85.80
2017-09-29T00:03:58.266Z,85.60
2017-09-29T00:06:26.223Z,85.60
2017-09-29T00:08:54.112Z,86.00
2017-09-29T00:11:22.071Z,86.00
2017-09-29T00:13:50.067Z,85.90
2017-09-29T00:16:18.091Z,86.40
2017-09-29T00:18:45.997Z,86.00
2017-09-29T00:21:14.709Z,86.50
2017-09-29T00:23:42.606Z,86.50
2017-09-29T00:26:10.546Z,87.30
2017-09-29T00:28:38.450Z,86.90
2017-09-29T00:31:06.425Z,87.00
2017-09-29T00:33:34.634Z,86.20
2017-09-29T00:36:02.586Z,86.60
2017-09-29T00:38:30.516Z,86.60
2017-09-29T00:40:58.485Z,86.10
2017-09-29T00:43:26.438Z,86.40
2017-09-29T00:45:54.435Z,86.90
2017-09-29T00:48:22.397Z,87.00
2017-09-29T00:50:50.329Z,86.90
2017-09-29T00:53:18.300Z,86.30
2017-09-29T00:55:47.012Z,86.90
2017-09-29T00:58:14.936Z,86.80
2017-09-29T01:00:42.906Z,87.10
2017-09-29T01:03:10.873Z,86.80
2017-09-29T01:05:38.809Z,87.60
2017-09-29T01:08:07.622Z,87.20
2017-09-29T01:10:35.544Z,87.10
2017-09-29T01:13:03.525Z,87.80
2017-09-29T01:15:31.497Z,87.40
2017-09-29T01:17:59.522Z,87.70
2017-09-29T01:20:27.479Z,87.70
2017-09-29T01:22:55.502Z,87.30
2017-09-29T01:25:24.430Z,87.30
2017-09-29T01:27:52.453Z,86.70
2017-09-29T01:30:21.179Z,87.20
2017-09-29T01:32:49.182Z,87.20
2017-09-29T01:35:17.161Z,87.10
2017-09-29T01:37:45.147Z,86.70
2017-09-29T01:40:13.097Z,86.70
2017-09-29T01:42:41.201Z,86.70
2017-09-29T01:45:09.212Z,87.00
2017-09-29T01:47:37.282Z,86.30
2017-09-29T01:50:05.193Z,87.20
2017-09-29T01:52:33.197Z,87.50
2017-09-29T01:55:01.285Z,87.80
2017-09-29T01:57:29.268Z,88.10
2017-09-29T01:59:57.280Z,88.30
2017-09-29T02:02:25.265Z,88.00
2017-09-29T02:04:53.286Z,87.70
2017-09-29T02:07:21.329Z,87.60
2017-09-29T02:09:49.359Z,88.10
2017-09-29T02:12:17.351Z,88.20
2017-09-29T02:14:45.356Z,88.80
2017-09-29T02:17:13.358Z,88.60
2017-09-29T02:19:41.379Z,88.60
2017-09-29T02:22:09.358Z,88.80
2017-09-29T02:24:44.310Z,88.90
2017-09-29T02:27:14.034Z,88.50
2017-09-29T02:29:43.664Z,88.60
2017-09-29T02:32:13.091Z,88.70
2017-09-29T02:34:42.756Z,88.90
2017-09-29T02:37:12.198Z,88.90
2017-09-29T02:39:41.754Z,89.30
2017-09-29T02:42:11.288Z,89.00
2017-09-29T02:44:40.964Z,88.80
2017-09-29T02:47:10.375Z,88.80
2017-09-29T02:49:39.988Z,89.00
2017-09-29T02:52:09.347Z,88.80
2017-09-29T02:54:38.915Z,89.60
2017-09-29T02:57:09.365Z,89.80
2017-09-29T02:59:41.922Z,89.30
2017-09-29T03:02:11.313Z,89.30
2017-09-29T03:04:41.772Z,89.20
2017-09-29T03:07:09.756Z,89.00
2017-09-29T03:09:37.839Z,89.40
2017-09-29T03:12:05.833Z,89.60
2017-09-29T03:14:33.927Z,89.30
2017-09-29T03:17:01.857Z,89.20
2017-09-29T03:19:29.814Z,89.90
2017-09-29T03:21:57.802Z,89.80
2017-09-29T03:24:25.745Z,89.50
2017-09-29T03:26:53.737Z,89.40
2017-09-29T03:29:21.657Z,89.00
2017-09-29T03:31:49.655Z,89.30
2017-09-29T03:34:19.732Z,89.60
2017-09-29T03:36:47.743Z,89.40
2017-09-29T03:39:16.485Z,89.20
2017-09-29T03:41:44.497Z,89.20
2017-09-29T03:44:13.207Z,89.10
2017-09-29T03:46:41.939Z,88.50
2017-09-29T03:49:09.843Z,88.40
2017-09-29T03:51:39.398Z,89.30
2017-09-29T03:54:13.572Z,89.30
2017-09-29T03:56:42.085Z,89.30
2017-09-29T03:59:10.495Z,89.30
2017-09-29T04:01:38.533Z,89.40
2017-09-29T04:04:06.501Z,89.20
2017-09-29T04:06:34.462Z,89.50
2017-09-29T04:09:03.207Z,89.60
2017-09-29T04:11:31.160Z,89.50
2017-09-29T04:14:01.156Z,89.80
2017-09-29T04:16:29.209Z,90.00
2017-09-29T04:18:57.987Z,90.30
2017-09-29T04:21:25.981Z,90.30
2017-09-29T04:23:53.952Z,90.20
2017-09-29T04:26:27.172Z,90.20
2017-09-29T04:29:02.198Z,90.20
2017-09-29T04:31:36.999Z,90.00
2017-09-29T04:34:11.039Z,90.00
2017-09-29T04:36:43.831Z,89.80
2017-09-29T04:39:18.373Z,90.00
2017-09-29T04:41:50.391Z,90.10
2017-09-29T04:44:18.316Z,89.80
2017-09-29T04:46:46.274Z,90.00
2017-09-29T04:49:22.189Z,90.00
2017-09-29T04:51:58.898Z,90.10
2017-09-29T04:54:31.857Z,90.10
2017-09-29T04:57:08.356Z,90.20
2017-09-29T04:59:42.293Z,90.40
2017-09-29T05:02:15.712Z,90.10
2017-09-29T05:04:49.838Z,90.20
2017-09-29T05:07:25.205Z,90.10
2017-09-29T05:09:53.390Z,90.20
2017-09-29T05:12:21.369Z,90.10
2017-09-29T05:14:49.272Z,90.20
2017-09-29T05:17:17.242Z,90.10
2017-09-29T05:19:45.200Z,90.50
2017-09-29T05:22:13.199Z,90.30
2017-09-29T05:24:41.217Z,90.30
2017-09-29T05:27:09.195Z,90.30
2017-09-29T05:29:37.226Z,90.20
2017-09-29T05:32:05.174Z,90.30
2017-09-29T05:34:43.197Z,90.30
2017-09-29T05:37:11.142Z,90.30
2017-09-29T05:39:39.908Z,90.40
2017-09-29T05:42:07.857Z,90.30
2017-09-29T05:44:35.909Z,90.20
2017-09-29T05:47:03.839Z,90.00
2017-09-29T05:49:31.855Z,89.90
2017-09-29T05:51:59.797Z,89.90
2017-09-29T05:54:27.799Z,90.20
2017-09-29T05:56:55.755Z,90.40
2017-09-29T05:59:23.723Z,90.20
2017-09-29T06:01:51.637Z,90.20
2017-09-29T06:04:19.861Z,90.00
2017-09-29T06:06:47.798Z,89.30
2017-09-29T06:09:15.728Z,89.10
2017-09-29T06:11:43.697Z,88.70
2017-09-29T06:14:11.621Z,89.00
2017-09-29T06:16:39.606Z,89.00
2017-09-29T06:19:07.534Z,88.50
2017-09-29T06:21:35.506Z,88.90
2017-09-29T06:24:03.458Z,89.20
2017-09-29T06:26:32.244Z,88.50
2017-09-29T06:29:00.221Z,88.50
2017-09-29T06:31:28.349Z,88.80
2017-09-29T06:33:56.345Z,89.00
2017-09-29T06:36:24.361Z,88.60
2017-09-29T06:38:52.281Z,88.60
2017-09-29T06:41:20.245Z,88.10
2017-09-29T06:43:48.177Z,88.70
2017-09-29T06:46:16.146Z,88.90
2017-09-29T06:48:44.084Z,88.70
2017-09-29T06:51:12.046Z,87.70
2017-09-29T06:53:39.972Z,87.80
2017-09-29T06:56:07.976Z,87.10
2017-09-29T06:58:35.954Z,86.40
2017-09-29T07:01:03.940Z,86.10
2017-09-29T07:03:31.953Z,87.10
2017-09-29T07:06:00.705Z,87.40
2017-09-29T07:08:28.710Z,87.30
2017-09-29T07:10:56.899Z,87.50
2017-09-29T07:13:24.872Z,87.30
2017-09-29T07:15:52.891Z,87.00
2017-09-29T07:18:21.090Z,86.20
2017-09-29T07:20:49.138Z,86.20
2017-09-29T07:23:17.220Z,85.80
2017-09-29T07:25:46.598Z,86.10
2017-09-29T07:28:15.795Z,86.20
2017-09-29T07:30:45.186Z,85.90
2017-09-29T07:33:13.238Z,85.50
2017-09-29T07:35:41.282Z,84.80
2017-09-29T07:38:09.345Z,84.40
2017-09-29T07:40:37.412Z,84.40
2017-09-29T07:43:05.543Z,83.40
2017-09-29T07:45:35.808Z,82.90
2017-09-29T07:48:03.902Z,79.10
2017-09-29T07:50:31.925Z,75.30
2017-09-29T07:53:00.026Z,71.30
2017-09-29T07:55:28.097Z,69.30
2017-09-29T07:58:00.442Z,65.70
2017-09-29T08:00:28.686Z,64.50
2017-09-29T08:02:56.758Z,61.20
2017-09-29T08:05:24.987Z,59.50
2017-09-29T08:07:53.057Z,58.50
2017-09-29T08:10:21.096Z,59.60
2017-09-29T08:12:49.178Z,57.50
2017-09-29T08:15:17.187Z,59.30
2017-09-29T08:17:45.275Z,56.80
2017-09-29T08:20:13.356Z,54.70
2017-09-29T08:22:42.431Z,53.40
2017-09-29T08:25:12.640Z,50.80
2017-09-29T08:27:40.686Z,48.60
2017-09-29T08:30:08.731Z,47.60
2017-09-29T08:32:36.743Z,47.20
2017-09-29T08:35:04.976Z,45.50
2017-09-29T08:37:34.448Z,46.70
2017-09-29T08:40:02.851Z,45.30
2017-09-29T08:42:31.695Z,45.00
2017-09-29T08:45:03.569Z,44.90
2017-09-29T08:47:36.557Z,45.50
2017-09-29T08:50:08.220Z,46.40
2017-09-29T08:52:36.308Z,46.50
2017-09-29T08:55:16.629Z,45.40
2017-09-29T08:57:44.740Z,45.80
2017-09-29T09:00:12.723Z,45.60
2017-09-29T09:02:40.632Z,46.00
2017-09-29T09:05:08.609Z,46.70
2017-09-29T09:07:36.524Z,48.60
2017-09-29T09:10:04.534Z,48.40
2017-09-29T09:12:32.479Z,49.70
2017-09-29T09:15:00.553Z,52.00
2017-09-29T09:17:28.532Z,52.80
2017-09-29T09:19:57.362Z,51.30
2017-09-29T09:22:25.333Z,51.20
2017-09-29T09:24:54.769Z,48.10
2017-09-29T09:27:22.722Z,45.80
2017-09-29T09:29:50.758Z,46.70
2017-09-29T09:32:18.713Z,49.10
2017-09-29T09:34:46.877Z,49.50
2017-09-29T09:37:15.074Z,49.30
2017-09-29T09:39:44.031Z,48.00
2017-09-29T09:42:12.830Z,48.60
2017-09-29T09:44:40.851Z,48.60
2017-09-29T09:47:09.685Z,51.50
2017-09-29T09:49:39.447Z,51.50
2017-09-29T09:52:07.411Z,53.20
2017-09-29T09:54:43.940Z,52.90
2017-09-29T09:57:12.229Z,54.80
2017-09-29T09:59:41.153Z,51.70
2017-09-29T10:02:09.187Z,51.70
2017-09-29T10:04:37.187Z,49.10
2017-09-29T10:07:05.194Z,47.10
2017-09-29T10:09:33.186Z,47.20
2017-09-29T10:12:01.238Z,46.90
2017-09-29T10:14:29.196Z,45.10
2017-09-29T10:16:57.286Z,45.20
2017-09-29T10:19:25.231Z,43.80
2017-09-29T10:21:53.241Z,44.00
2017-09-29T10:24:28.757Z,44.50
2017-09-29T10:26:56.709Z,43.90
2017-09-29T10:29:24.680Z,41.70
2017-09-29T10:31:52.648Z,39.90
2017-09-29T10:34:20.595Z,41.00
2017-09-29T10:36:48.744Z,43.80
2017-09-29T10:39:16.672Z,43.00
2017-09-29T10:41:44.657Z,43.90
2017-09-29T10:44:12.602Z,42.50
2017-09-29T10:46:40.706Z,42.40
2017-09-29T10:49:09.463Z,40.90
2017-09-29T10:51:37.464Z,39.60
2017-09-29T10:54:05.468Z,38.90
2017-09-29T10:56:33.596Z,39.70
2017-09-29T10:59:01.646Z,39.30
2017-09-29T11:01:29.676Z,40.20
2017-09-29T11:03:58.753Z,38.60
2017-09-29T11:06:26.883Z,39.60
2017-09-29T11:08:54.920Z,39.60
2017-09-29T11:11:22.902Z,38.40
2017-09-29T11:13:51.013Z,38.50
2017-09-29T11:16:18.953Z,37.20
2017-09-29T11:18:47.002Z,37.90
2017-09-29T11:21:14.980Z,38.30
2017-09-29T11:23:46.322Z,39.50
2017-09-29T11:26:14.265Z,38.90
2017-09-29T11:28:42.279Z,39.30
2017-09-29T11:31:10.319Z,38.20
2017-09-29T11:33:38.488Z,39.10
2017-09-29T11:36:06.451Z,40.70
2017-09-29T11:38:34.591Z,40.40
2017-09-29T11:41:03.588Z,38.90
2017-09-29T11:43:31.581Z,40.00
2017-09-29T11:45:59.718Z,40.00
2017-09-29T11:48:28.215Z,39.40
2017-09-29T11:50:57.823Z,39.60
2017-09-29T11:53:26.030Z,42.50
2017-09-29T11:55:53.973Z,43.60
2017-09-29T11:58:22.015Z,43.60
2017-09-29T12:00:49.991Z,44.30
2017-09-29T12:03:18.018Z,45.10
2017-09-29T12:05:45.998Z,46.70
2017-09-29T12:08:13.943Z,47.20
2017-09-29T12:10:41.941Z,48.40
2017-09-29T12:13:09.849Z,47.90
2017-09-29T12:15:37.832Z,48.00
2017-09-29T12:18:05.733Z,46.80
2017-09-29T12:20:33.713Z,46.60
2017-09-29T12:23:01.707Z,46.00
2017-09-29T12:25:29.720Z,45.20
2017-09-29T12:27:57.644Z,43.80
2017-09-29T12:30:25.662Z,43.50
2017-09-29T12:32:53.615Z,43.50
2017-09-29T12:46:58.943Z,48.70
2017-09-29T12:49:27.160Z,48.70
2017-09-29T12:51:55.169Z,49.50
2017-09-29T12:54:23.144Z,49.00
2017-09-29T12:56:51.186Z,48.90
2017-09-29T12:59:19.175Z,48.90
2017-09-29T13:01:47.237Z,49.20
2017-09-29T13:04:15.304Z,48.50
2017-09-29T13:06:44.152Z,50.30
2017-09-29T13:09:12.203Z,50.20
2017-09-29T13:11:40.738Z,49.10
2017-09-29T13:14:08.748Z,50.30
2017-09-29T13:16:36.781Z,50.60
2017-09-29T13:19:04.993Z,50.60
2017-09-29T13:21:33.529Z,50.70
2017-09-29T13:24:02.410Z,52.10
2017-09-29T13:26:30.931Z,52.10
2017-09-29T13:28:59.153Z,52.00
2017-09-29T13:31:28.404Z,52.90
2017-09-29T13:33:56.554Z,52.80
2017-09-29T13:36:25.324Z,52.90
2017-09-29T13:38:54.962Z,52.80
2017-09-29T13:41:23.057Z,52.20
2017-09-29T13:43:51.069Z,53.20
2017-09-29T13:46:19.256Z,52.20
2017-09-29T13:48:47.479Z,53.50
2017-09-29T13:51:19.441Z,52.80
2017-09-29T13:53:48.265Z,52.30
2017-09-29T13:56:16.336Z,52.20
2017-09-29T13:58:44.645Z,52.70
2017-09-29T14:01:12.837Z,51.80
2017-09-29T14:03:40.863Z,52.90
2017-09-29T14:06:08.916Z,52.70
2017-09-29T14:08:37.101Z,52.00
2017-09-29T14:11:05.128Z,52.90
2017-09-29T14:13:33.234Z,52.80
2017-09-29T14:16:01.225Z,52.70
2017-09-29T14:18:29.281Z,52.30
2017-09-29T14:20:57.336Z,53.00
2017-09-29T14:23:25.452Z,53.30
2017-09-29T14:25:53.498Z,52.30
2017-09-29T14:28:21.689Z,52.60
2017-09-29T14:30:49.712Z,53.50
2017-09-29T14:33:17.757Z,53.40
2017-09-29T14:35:45.880Z,53.80
2017-09-29T14:38:13.974Z,54.20
2017-09-29T14:40:42.045Z,54.30
2017-09-29T14:43:10.077Z,55.20
2017-09-29T14:45:38.108Z,55.00
2017-09-29T14:48:06.175Z,55.80
2017-09-29T14:50:34.193Z,55.90
2017-09-29T14:53:02.310Z,56.00
2017-09-29T14:55:30.351Z,55.90
2017-09-29T14:57:58.559Z,56.60
2017-09-29T15:00:26.598Z,56.70
2017-09-29T15:02:54.657Z,57.60
2017-09-29T15:05:22.625Z,56.70
2017-09-29T15:07:50.677Z,57.20
2017-09-29T15:10:19.508Z,57.60
2017-09-29T15:12:47.011Z,57.50
2017-09-29T15:15:15.048Z,58.70
2017-09-29T15:17:43.045Z,58.70
2017-09-29T15:20:11.070Z,58.70
2017-09-29T15:22:39.058Z,58.80
2017-09-29T15:25:07.162Z,59.70
2017-09-29T15:27:35.444Z,59.20
2017-09-29T15:30:03.501Z,58.90
2017-09-29T15:32:31.524Z,59.40
2017-09-29T15:34:59.598Z,59.60
2017-09-29T15:37:27.628Z,59.20
2017-09-29T15:39:55.670Z,59.50
2017-09-29T15:42:23.926Z,59.80
2017-09-29T15:44:51.906Z,60.60
2017-09-29T15:47:19.870Z,59.10
2017-09-29T15:49:47.880Z,60.10
2017-09-29T15:52:15.877Z,60.20
2017-09-29T15:54:43.992Z,60.70
2017-09-29T15:57:12.272Z,62.00
2017-09-29T15:59:40.372Z,61.90
2017-09-29T16:02:08.375Z,62.10
2017-09-29T16:04:36.536Z,61.90
2017-09-29T16:07:04.609Z,62.40
2017-09-29T16:09:32.699Z,62.60
2017-09-29T16:12:00.712Z,63.30
2017-09-29T16:14:28.831Z,63.30
2017-09-29T16:16:56.905Z,63.60
2017-09-29T16:19:25.025Z,63.80
2017-09-29T16:21:53.027Z,63.10
2017-09-29T16:24:21.076Z,64.00
2017-09-29T16:26:49.144Z,64.20
2017-09-29T16:29:17.441Z,64.70
2017-09-29T16:31:45.545Z,64.70
2017-09-29T16:34:13.589Z,65.40
2017-09-29T16:36:41.620Z,65.40
2017-09-29T16:39:09.936Z,65.60
2017-09-29T16:41:38.884Z,66.60
2017-09-29T16:44:07.012Z,66.50
2017-09-29T16:46:35.133Z,66.10
2017-09-29T16:49:03.184Z,66.40
2017-09-29T16:51:32.085Z,66.80
2017-09-29T16:54:00.914Z,67.30
2017-09-29T16:56:29.242Z,67.30
2017-09-29T16:58:57.359Z,67.60
2017-09-29T17:01:25.466Z,67.40
2017-09-29T17:03:53.536Z,66.60
2017-09-29T17:06:21.653Z,66.80
2017-09-29T17:08:49.719Z,67.10
2017-09-29T17:11:18.329Z,67.30
2017-09-29T17:13:46.393Z,67.80
2017-09-29T17:16:15.335Z,68.60
2017-09-29T17:18:43.661Z,69.20
2017-09-29T17:21:11.929Z,69.30
2017-09-29T17:23:39.982Z,70.40
2017-09-29T17:26:08.229Z,70.60
2017-09-29T17:28:36.411Z,70.90
2017-09-29T17:31:04.490Z,71.20
2017-09-29T17:33:32.624Z,71.60
2017-09-29T17:36:00.733Z,71.80
2017-09-29T17:38:28.858Z,71.50
2017-09-29T17:40:57.646Z,71.60
2017-09-29T17:43:25.745Z,71.70
2017-09-29T17:45:54.039Z,71.60
2017-09-29T17:48:23.225Z,71.80
2017-09-29T17:50:51.283Z,72.00
2017-09-29T17:53:19.355Z,71.40
2017-09-29T17:55:47.292Z,71.50
2017-09-29T17:58:15.371Z,71.80
2017-09-29T18:00:43.363Z,71.20
2017-09-29T18:03:11.599Z,71.80
2017-09-29T18:05:39.545Z,71.00
2017-09-29T18:08:07.689Z,71.20
2017-09-29T18:10:35.666Z,70.70
2017-09-29T18:13:03.868Z,71.00
2017-09-29T18:15:31.921Z,70.90
2017-09-29T18:18:02.111Z,71.50
2017-09-29T18:20:31.034Z,71.10
2017-09-29T18:22:59.036Z,71.50
2017-09-29T18:25:27.013Z,71.50
2017-09-29T18:27:55.015Z,72.00
2017-09-29T18:30:23.015Z,72.20
2017-09-29T18:32:51.059Z,72.60
2017-09-29T18:35:19.046Z,72.50
2017-09-29T18:37:47.046Z,72.80
2017-09-29T18:40:15.998Z,73.00
2017-09-29T18:42:46.814Z,73.20
2017-09-29T18:45:16.618Z,73.20
2017-09-29T18:47:44.818Z,73.00
2017-09-29T18:50:12.887Z,73.20
2017-09-29T18:52:40.941Z,73.10
2017-09-29T18:55:09.115Z,72.80
2017-09-29T18:57:37.264Z,73.00
2017-09-29T19:00:05.401Z,73.50
2017-09-29T19:02:33.451Z,73.40
2017-09-29T19:05:01.548Z,73.00
2017-09-29T19:07:29.532Z,73.70
2017-09-29T19:09:57.704Z,74.00
2017-09-29T19:12:25.715Z,73.40
2017-09-29T19:14:53.745Z,74.00
2017-09-29T19:17:23.921Z,74.60
2017-09-29T19:19:52.225Z,75.20
2017-09-29T19:22:20.218Z,75.90
2017-09-29T19:24:48.292Z,76.40
2017-09-29T19:27:16.438Z,77.00
2017-09-29T19:29:44.525Z,77.90
2017-09-29T19:32:12.700Z,78.10
2017-09-29T19:34:44.893Z,78.10
2017-09-29T19:37:13.031Z,78.10
2017-09-29T19:39:41.090Z,79.10
2017-09-29T19:42:09.232Z,79.70
2017-09-29T19:44:37.396Z,79.50
2017-09-29T19:47:05.642Z,79.80
2017-09-29T19:49:33.620Z,80.30
2017-09-29T19:52:02.042Z,80.20
2017-09-29T19:54:30.093Z,80.20
2017-09-29T19:56:58.142Z,79.50
2017-09-29T19:59:26.180Z,79.70
2017-09-29T20:01:55.028Z,80.80
2017-09-29T20:04:23.720Z,80.70
2017-09-29T20:06:51.780Z,81.10
2017-09-29T20:09:19.786Z,81.40
2017-09-29T20:11:47.864Z,81.60
2017-09-29T20:14:15.875Z,81.80
2017-09-29T20:16:44.053Z,80.50
2017-09-29T20:19:13.801Z,81.40
2017-09-29T20:21:46.050Z,81.00
2017-09-29T20:24:14.665Z,80.90
2017-09-29T20:26:42.765Z,78.90
2017-09-29T20:29:10.742Z,80.00
2017-09-29T20:31:42.463Z,80.30
2017-09-29T20:34:14.201Z,79.80
2017-09-29T20:36:47.638Z,79.50
2017-09-29T20:39:20.191Z,79.60
2017-09-29T20:41:53.468Z,79.20
2017-09-29T20:44:23.905Z,79.60
2017-09-29T20:46:54.607Z,79.60
2017-09-29T20:49:26.091Z,79.70
2017-09-29T20:51:56.254Z,79.60
2017-09-29T20:54:27.343Z,79.00
2017-09-29T20:57:02.408Z,78.40
2017-09-29T20:59:32.768Z,78.90
2017-09-29T21:02:07.490Z,78.60
2017-09-29T21:04:38.747Z,78.90
2017-09-29T21:07:13.324Z,78.70
2017-09-29T21:09:43.953Z,79.00
2017-09-29T21:12:20.911Z,78.90
2017-09-29T21:14:56.265Z,78.90
2017-09-29T21:17:31.556Z,79.10
2017-09-29T21:19:59.659Z,79.80
2017-09-29T21:22:27.734Z,80.10
2017-09-29T21:24:55.734Z,80.50
2017-09-29T21:27:23.902Z,80.10
2017-09-29T21:29:51.904Z,80.40
2017-09-29T21:32:19.956Z,80.50
2017-09-29T21:34:48.011Z,81.00
2017-09-29T21:37:16.247Z,80.00
2017-09-29T21:39:44.347Z,81.30
2017-09-29T21:42:12.379Z,81.30
2017-09-29T21:44:40.409Z,81.20
2017-09-29T21:47:08.420Z,81.60
2017-09-29T21:49:37.223Z,81.60
2017-09-29T21:52:05.245Z,81.70
2017-09-29T21:54:33.285Z,81.50
2017-09-29T21:57:01.384Z,81.00
2017-09-29T21:59:29.619Z,81.80
2017-09-29T22:01:59.069Z,81.50
2017-09-29T22:04:27.204Z,81.70
2017-09-29T22:06:56.713Z,81.80
2017-09-29T22:09:29.949Z,81.70
2017-09-29T22:11:58.170Z,81.90
2017-09-29T22:14:26.202Z,81.50
2017-09-29T22:16:54.152Z,81.60
2017-09-29T22:19:22.216Z,81.20
2017-09-29T22:21:50.201Z,81.20
2017-09-29T22:24:18.712Z,81.60
2017-09-29T22:26:47.495Z,81.40
2017-09-29T22:29:15.518Z,81.90
2017-09-29T22:31:43.893Z,81.80
2017-09-29T22:34:11.923Z,81.60
2017-09-29T22:36:40.720Z,82.90
2017-09-29T22:39:08.991Z,82.80
2017-09-29T22:41:38.852Z,82.30
2017-09-29T22:44:07.072Z,82.40
2017-09-29T22:46:35.120Z,82.80
2017-09-29T22:49:03.158Z,83.30
2017-09-29T22:51:33.267Z,83.30
2017-09-29T22:54:01.301Z,84.10
2017-09-29T22:56:29.341Z,83.70
2017-09-29T22:58:57.298Z,83.20
2017-09-29T23:01:25.330Z,84.00
2017-09-29T23:03:53.317Z,83.10
2017-09-29T23:06:22.371Z,84.20
2017-09-29T23:08:50.332Z,84.10
2017-09-29T23:11:18.293Z,83.70
2017-09-29T23:13:46.193Z,83.80
2017-09-29T23:16:14.155Z,83.60
2017-09-29T23:18:42.192Z,84.50
2017-09-29T23:21:10.150Z,84.60
2017-09-29T23:23:38.071Z,85.90
2017-09-29T23:26:06.093Z,85.90
2017-09-29T23:28:34.015Z,85.80
2017-09-29T23:31:01.970Z,86.70
2017-09-29T23:33:29.867Z,86.60
2017-09-29T23:35:57.845Z,86.20
2017-09-29T23:38:25.768Z,86.10
2017-09-29T23:40:53.757Z,86.00
2017-09-29T23:43:21.669Z,85.90
2017-09-29T23:45:50.474Z,85.50
2017-09-29T23:48:18.424Z,85.50
2017-09-29T23:50:47.162Z,85.80
2017-09-29T23:53:15.065Z,85.80
2017-09-29T23:55:43.053Z,84.80
2017-09-29T23:58:11.736Z,84.80
